Flight Track Log - Related Links

Times and Time Zones

All times are in EDT time to prevent confusion due to time zone crossing. See the JBU1371 flight status page for this flight to view local times or setup timezone preferences in your user account.

Time Position Orientation Groundspeed Altitude Reporting Facility
EDT Latitude Longitude Course Direction KTS MPH feet Rate Location/Type
Tue 10:48:20 PM 40.7750 -73.8780 239° Southwest 33 38  Level FlightAware ADS-B
Tue 10:48:50 PM 40.7720 -73.8800 207° Southwest 32 37 111 Level FlightAware ADS-B
Tue 10:51:00 PM 40.5675 -73.9662 201° Southwest  Level FlightAware Approximate
Tue 10:52:00 PM 40.4752 -74.0041 201° Southwest  Level FlightAware Approximate
Tue 10:52:50 PM 40.7990 -73.8600 201° Southwest 153 176 500  Level FlightAware ADS-B
Tue 10:53:01 PM 40.8100 -73.8670 334° Northwest 162 186 2,000 3,692 Climbing FlightAware ADS-B
Tue 10:53:29 PM 40.8340 -73.8720 351° North 190 219 2,900 1,929 Climbing FlightAware ADS-B
Tue 10:53:57 PM 40.8600 -73.8800 347° North 231 266 3,800 2,400 Climbing FlightAware ADS-B
Tue 10:54:24 PM 40.8921 -73.8894 348° North 264 304 5,100 3,136 Climbing FlightAware ADS-B
Tue 10:54:41 PM 40.9109 -73.9023 333° Northwest 267 307 6,100 3,429 Climbing FlightAware ADS-B
Tue 10:54:45 PM 40.9145 -73.9072 314° West 273 314 6,300 3,000 Climbing FlightAware ADS-B
Tue 10:54:51 PM 40.9183 -73.9141 306° West 274 315 6,600 3,000 Climbing FlightAware ADS-B
Tue 10:54:55 PM 40.9208 -73.9201 299° West 273 314 6,800 2,000 Climbing FlightAware ADS-B
Tue 10:55:00 PM 40.9230 -73.9281 290° West 273 314 6,900 1,500 Climbing FlightAware ADS-B
Tue 10:55:03 PM 40.9240 -73.9338 283° West 274 315 7,000 1,263 Climbing FlightAware ADS-B
Tue 10:55:19 PM 40.9226 -73.9598 266° West 273 314 7,300 720 Climbing FlightAware ADS-B
Tue 10:55:28 PM 40.9175 -73.9738 244° Southwest 276 318 7,300  Level FlightAware ADS-B
Tue 10:55:44 PM 40.9024 -73.9918 222° Southwest 283 326 7,300  Level FlightAware ADS-B
Tue 10:55:48 PM 40.8976 -73.9952 208° Southwest 284 327 7,300  Level FlightAware ADS-B
Tue 10:56:03 PM 40.8801 -74.0059 205° Southwest 285 328 7,300 194 Level FlightAware ADS-B
Tue 10:56:19 PM 40.8608 -74.0172 204° Southwest 287 330 7,400 1,059 Climbing FlightAware ADS-B
Tue 10:56:37 PM 40.8388 -74.0302 204° Southwest 290 334 7,900 2,667 Climbing FlightAware ADS-B
Tue 10:56:55 PM 40.8172 -74.0431 204° Southwest 290 334 9,000 3,918 Climbing FlightAware ADS-B
Tue 10:57:26 PM 40.7804 -74.0652 204° Southwest 278 320 11,100 4,059 Climbing FlightAware ADS-B
Tue 10:57:29 PM 40.7764 -74.0676 204° Southwest 278 320 11,300 2,057 Climbing FlightAware ADS-B
Tue 10:58:01 PM 40.7378 -74.0897 203° Southwest 283 326 12,300 1,818 Climbing FlightAware ADS-B
Tue 10:58:02 PM 40.7368 -74.0903 204° Southwest 284 327 12,300  Level FlightAware ADS-B
Tue 10:58:33 PM 40.6996 -74.1115 203° Southwest 286 329 12,300  Level FlightAware ADS-B
Tue 10:58:37 PM 40.6943 -74.1145 203° Southwest 286 329 12,300  Level FlightAware ADS-B
Tue 10:58:55 PM 40.6731 -74.1279 206° Southwest 285 328 12,300  Level FlightAware ADS-B
Tue 10:58:56 PM 40.6720 -74.1289 215° Southwest 286 329 12,300 1,000 Level FlightAware ADS-B
Tue 10:59:01 PM 40.6664 -74.1345 217° Southwest 288 331 12,400 2,438 Climbing FlightAware ADS-B
Tue 10:59:28 PM 40.6398 -74.1673 223° Southwest 297 342 13,600 2,813 Climbing FlightAware ADS-B
Tue 10:59:33 PM 40.6349 -74.1735 224° Southwest 295 339 13,900 3,484 Climbing FlightAware ADS-B
Tue 10:59:59 PM 40.6098 -74.2064 225° Southwest 293 337 15,400 3,400 Climbing FlightAware ADS-B
Tue 11:00:03 PM 40.6059 -74.2115 225° Southwest 293 337 15,600 2,889 Climbing FlightAware ADS-B
Tue 11:00:26 PM 40.5843 -74.2401 225° Southwest 295 339 16,700 3,000 Climbing FlightAware ADS-B
Tue 11:00:27 PM 40.5827 -74.2420 222° Southwest 296 341 16,800 1,800 Climbing FlightAware ADS-B
Tue 11:00:36 PM 40.5729 -74.2510 215° Southwest 300 345 17,000 1,600 Climbing FlightAware ADS-B
Tue 11:00:42 PM 40.5648 -74.2559 205° Southwest 301 346 17,200 1,091 Climbing FlightAware ADS-B
Tue 11:00:47 PM 40.5589 -74.2584 198° South 305 351 17,200 545 Level FlightAware ADS-B
Tue 11:00:53 PM 40.5495 -74.2608 191° South 310 357 17,300 500 Climbing FlightAware ADS-B
Tue 11:00:59 PM 40.5421 -74.2614 184° South 312 359 17,300  Level FlightAware ADS-B
Tue 11:01:05 PM 40.5321 -74.2617 181° South 312 359 17,300  Level FlightAware ADS-B
Tue 11:01:31 PM 40.4946 -74.2611 179° South 315 362 17,300  Level FlightAware ADS-B
Tue 11:01:40 PM 40.4820 -74.2607 179° South 317 365 17,300  Level FlightAware ADS-B
Tue 11:02:10 PM 40.4376 -74.2596 179° South 319 367 17,300  Level FlightAware ADS-B
Tue 11:02:40 PM 40.3931 -74.2587 179° South 319 367 17,300  Level FlightAware ADS-B
Tue 11:03:13 PM 40.3443 -74.2577 179° South 318 366 17,300  Level FlightAware ADS-B
Tue 11:03:44 PM 40.2975 -74.2569 179° South 339 390 17,300  Level FlightAware ADS-B
Tue 11:04:14 PM 40.2497 -74.2560 179° South 346 398 17,300  Level FlightAware ADS-B
Tue 11:04:47 PM 40.1982 -74.2550 179° South 344 396 17,300  Level FlightAware ADS-B
Tue 11:05:17 PM 40.1490 -74.2540 179° South 344 396 17,300 771 Level FlightAware ADS-B
Tue 11:05:57 PM 40.0848 -74.2529 179° South 355 409 18,200 2,083 Climbing FlightAware ADS-B
Tue 11:06:29 PM 40.0334 -74.2520 179° South 350 403 19,800 2,850 Climbing FlightAware ADS-B
Tue 11:06:37 PM 40.0204 -74.2531 184° South 350 403 20,100 2,250 Climbing FlightAware ADS-B
Tue 11:06:45 PM 40.0075 -74.2569 193° South 349 402 20,400 2,000 Climbing FlightAware ADS-B
Tue 11:06:52 PM 39.9972 -74.2623 202° Southwest 344 396 20,600 1,846 Climbing FlightAware ADS-B
Tue 11:07:24 PM 39.9552 -74.2994 214° Southwest 347 399 21,600 1,905 Climbing FlightAware ADS-B
Tue 11:07:55 PM 39.9138 -74.3396 217° Southwest 359 413 22,600 1,881 Climbing FlightAware ADS-B
Tue 11:08:31 PM 39.8659 -74.3857 216° Southwest 368 423 23,700 1,688 Climbing FlightAware ADS-B
Tue 11:08:59 PM 39.8264 -74.4242 217° Southwest 375 432 24,400 1,610 Climbing FlightAware ADS-B
Tue 11:09:12 PM 39.8097 -74.4427 220° Southwest 378 435 24,800 1,680 Climbing FlightAware ADS-B
Tue 11:09:24 PM 39.7946 -74.4614 224° Southwest 379 436 25,100 2,045 Climbing FlightAware ADS-B
Tue 11:09:56 PM 39.7564 -74.5132 226° Southwest 379 436 26,300 2,308 Climbing FlightAware ADS-B
Tue 11:10:03 PM 39.7480 -74.5261 230° Southwest 371 427 26,600 2,108 Climbing FlightAware ADS-B
Tue 11:10:33 PM 39.7152 -74.5778 230° Southwest 370 426 27,600 1,279 Climbing FlightAware ADS-B
Tue 11:11:04 PM 39.6810 -74.6315 230° Southwest 387 445 27,900 393 Climbing FlightAware ADS-B
Tue 11:11:34 PM 39.6463 -74.6864 231° Southwest 390 449 28,000 400 Climbing FlightAware ADS-B
Tue 11:12:04 PM 39.6118 -74.7412 231° Southwest 399 459 28,300 689 Climbing FlightAware ADS-B
Tue 11:12:35 PM 39.5761 -74.7978 231° Southwest 409 471 28,700 1,053 Climbing FlightAware ADS-B
Tue 11:13:01 PM 39.5448 -74.8474 231° Southwest 415 478 29,300 1,200 Climbing FlightAware ADS-B
Tue 11:13:25 PM 39.5138 -74.8947 230° Southwest 425 489 29,700 1,034 Climbing FlightAware ADS-B
Tue 11:13:30 PM 39.5070 -74.9038 226° Southwest 428 493 29,800 800 Climbing FlightAware ADS-B
Tue 11:13:40 PM 39.4927 -74.9197 221° Southwest 433 498 29,900 923 Climbing FlightAware ADS-B
Tue 11:13:43 PM 39.4866 -74.9253 215° Southwest 436 502 30,000 1,235 Climbing FlightAware ADS-B
Tue 11:14:14 PM 39.4315 -74.9623 207° Southwest 445 512 30,600 1,869 Climbing FlightAware ADS-B
Tue 11:14:44 PM 39.3761 -74.9961 205° Southwest 433 498 31,900 1,800 Climbing FlightAware ADS-B
Tue 11:15:14 PM 39.3214 -75.0298 205° Southwest 439 505 32,400 1,400 Climbing FlightAware ADS-B
Tue 11:15:44 PM 39.2665 -75.0633 205° Southwest 437 503 33,300 1,902 Climbing FlightAware ADS-B
Tue 11:15:55 PM 39.2453 -75.0741 202° Southwest 437 503 33,700 1,909 Climbing FlightAware ADS-B
Tue 11:16:06 PM 39.2251 -75.0822 197° South 439 505 34,000 1,286 Climbing FlightAware ADS-B
Tue 11:16:23 PM 39.1907 -75.0938 195° South 441 507 34,300 1,375 Climbing FlightAware ADS-B
Tue 11:16:54 PM 39.1306 -75.1134 194° South 438 504 35,100 1,250 Climbing FlightAware ADS-B
Tue 11:17:35 PM 39.0507 -75.1399 194° South 440 506 35,800 1,268 Climbing FlightAware ADS-B
Tue 11:18:05 PM 38.9904 -75.1610 195° South 436 502 36,600 1,452 Climbing FlightAware ADS-B
Tue 11:18:37 PM 38.9299 -75.1832 196° South 434 499 37,300 1,258 Climbing FlightAware ADS-B
Tue 11:19:07 PM 38.8718 -75.2042 196° South 429 494 37,900 689 Climbing FlightAware ADS-B
Tue 11:19:38 PM 38.8134 -75.2249 195° South 429 494 38,000 143 Climbing FlightAware ADS-B
Tue 11:19:49 PM 38.7919 -75.2336 198° South 428 493 38,000  Level FlightAware ADS-B
Tue 11:20:01 PM 38.7693 -75.2460 203° Southwest 428 493 38,000  Level FlightAware ADS-B
Tue 11:20:33 PM 38.7140 -75.2810 206° Southwest 426 490 38,000  Level FlightAware ADS-B
Tue 11:20:43 PM 38.6954 -75.2932 207° Southwest 430 495 38,000  Level FlightAware ADS-B
Tue 11:21:13 PM 38.6415 -75.3275 206° Southwest 436 502 38,000  Level FlightAware ADS-B
Tue 11:21:43 PM 38.5869 -75.3620 206° Southwest 436 502 38,000  Level FlightAware ADS-B
Tue 11:22:17 PM 38.5261 -75.4003 206° Southwest 436 502 38,000  Level FlightAware ADS-B
Tue 11:22:53 PM 38.4606 -75.4415 206° Southwest 438 504 38,000  Level FlightAware ADS-B
Tue 11:23:26 PM 38.4005 -75.4792 206° Southwest 440 506 38,000  Level FlightAware ADS-B
Tue 11:23:56 PM 38.3455 -75.5138 206° Southwest 440 506 38,000  Level FlightAware ADS-B
Tue 11:24:26 PM 38.2904 -75.5482 206° Southwest 441 507 38,000  Level FlightAware ADS-B
Tue 11:24:57 PM 38.2337 -75.5836 206° Southwest 440 506 38,000 95 Level FlightAware ADS-B
Tue 11:25:29 PM 38.1760 -75.6196 206° Southwest 438 504 38,100 97 Climbing FlightAware ADS-B
Tue 11:25:59 PM 38.1212 -75.6538 206° Southwest 436 502 38,100 -98 Level FlightAware ADS-B
Tue 11:26:30 PM 38.0666 -75.6877 206° Southwest 434 499 38,000 -98 Descending FlightAware ADS-B
Tue 11:27:00 PM 38.0121 -75.7215 206° Southwest 432 497 38,000  Level FlightAware ADS-B
Tue 11:27:32 PM 37.9547 -75.7570 206° Southwest 432 497 38,000  Level FlightAware ADS-B
Tue 11:28:06 PM 37.8940 -75.7946 206° Southwest 433 498 38,000  Level FlightAware ADS-B
Tue 11:28:56 PM 37.8028 -75.8509 206° Southwest 435 501 38,000  Level FlightAware ADS-B
Tue 11:29:27 PM 37.7477 -75.8848 206° Southwest 435 501 38,000  Level FlightAware ADS-B
Tue 11:29:57 PM 37.6923 -75.9188 206° Southwest 437 503 38,000  Level FlightAware ADS-B
Tue 11:30:28 PM 37.6366 -75.9530 206° Southwest 438 504 38,000  Level FlightAware ADS-B
Tue 11:30:59 PM 37.5792 -75.9883 206° Southwest 439 505 38,000  Level FlightAware ADS-B
Tue 11:31:52 PM 37.4880 -76.0440 206° Southwest 432 497 38,000  Level FlightAware ADS-B
Tue 11:32:34 PM 37.4053 -76.0943 206° Southwest 440 506 38,000  Level FlightAware ADS-B
Tue 11:33:06 PM 37.3473 -76.1298 206° Southwest 445 512 38,000  Level FlightAware ADS-B
Tue 11:33:37 PM 37.2892 -76.1650 206° Southwest 448 516 38,000  Level FlightAware ADS-B
Tue 11:34:07 PM 37.2329 -76.1991 206° Southwest 449 517 38,000  Level FlightAware ADS-B
Tue 11:34:39 PM 37.1738 -76.2348 206° Southwest 449 517 38,000  Level FlightAware ADS-B
Tue 11:35:09 PM 37.1174 -76.2688 206° Southwest 448 516 38,000  Level FlightAware ADS-B
Tue 11:35:39 PM 37.0614 -76.3026 206° Southwest 449 517 38,000  Level FlightAware ADS-B
Tue 11:36:11 PM 37.0024 -76.3381 206° Southwest 447 514 38,000  Level FlightAware ADS-B
Tue 11:36:43 PM 36.9416 -76.3746 206° Southwest 446 513 38,000  Level FlightAware ADS-B
Tue 11:37:03 PM 36.9046 -76.3963 205° Southwest 447 514 38,000  Level FlightAware ADS-B
Tue 11:37:09 PM 36.8940 -76.4016 202° Southwest 448 516 38,000  Level FlightAware ADS-B
Tue 11:37:42 PM 36.8288 -76.4297 199° South 448 516 38,000  Level FlightAware ADS-B
Tue 11:38:12 PM 36.7701 -76.4548 199° South 447 514 38,000  Level FlightAware ADS-B
Tue 11:38:42 PM 36.7103 -76.4806 199° South 448 516 38,000  Level FlightAware ADS-B
Tue 11:39:24 PM 36.6298 -76.5155 199° South 448 516 38,000  Level FlightAware ADS-B
Tue 11:39:55 PM 36.5680 -76.5422 199° South 448 516 38,000  Level FlightAware ADS-B
Tue 11:41:02 PM 36.4440 -76.5960 199° South 445 512 38,000  Level FlightAware ADS-B
Tue 11:41:42 PM 36.3640 -76.6300 199° South 443 510 38,000  Level FlightAware ADS-B
Tue 11:42:27 PM 36.2780 -76.6670 199° South 443 510 38,000  Level FlightAware ADS-B
Tue 11:43:07 PM 36.2000 -76.7000 199° South 442 509 38,000  Level FlightAware ADS-B
Tue 11:43:52 PM 36.1120 -76.7370 199° South 443 510 38,000  Level FlightAware ADS-B
Tue 11:44:32 PM 36.0350 -76.7700 199° South 446 513 38,000  Level FlightAware ADS-B
Tue 11:45:31 PM 35.9230 -76.8180 199° South 443 510 38,000  Level FlightAware ADS-B
Tue 11:46:20 PM 35.8330 -76.8560 199° South 444 511 38,000  Level FlightAware ADS-B
Tue 11:46:56 PM 35.7740 -76.8810 199° South 444 511 38,000  Level FlightAware ADS-B
Tue 11:47:44 PM 35.6940 -76.9150 199° South 444 511 38,000  Level FlightAware ADS-B
Tue 11:48:20 PM 35.6350 -76.9400 199° South 444 511 38,000  Level FlightAware ADS-B
Tue 11:48:56 PM 35.5750 -76.9650 199° South 444 511 38,000  Level FlightAware ADS-B
Tue 11:49:44 PM 35.4960 -76.9990 199° South 444 511 38,000  Level FlightAware ADS-B
Tue 11:50:20 PM 35.4370 -77.0240 199° South 444 511 38,000  Level FlightAware ADS-B
Tue 11:50:56 PM 35.3770 -77.0490 199° South 444 511 38,000  Level FlightAware ADS-B
Tue 11:51:44 PM 35.2980 -77.0820 199° South 444 511 38,000  Level FlightAware ADS-B
Tue 11:52:20 PM 35.2390 -77.1070 199° South 444 511 38,000  Level FlightAware ADS-B
Tue 11:53:09 PM 35.1580 -77.1420 199° South 444 511 38,000  Level FlightAware ADS-B
Tue 11:53:45 PM 35.0980 -77.1670 199° South 444 511 38,000  Level FlightAware ADS-B
Tue 11:54:33 PM 35.0190 -77.2000 199° South 444 511 38,000  Level FlightAware ADS-B
Tue 11:55:10 PM 34.9580 -77.2260 199° South 444 511 38,000  Level FlightAware ADS-B
Tue 11:55:46 PM 34.8990 -77.2510 199° South 444 511 38,000 16 Level FlightAware ADS-B
Wed 12:01:37 AM 33.9920 -77.6150 198° South 457 526 38,100 15 Climbing FlightAware ADS-B
Wed 12:02:17 AM 33.9110 -77.6480 199° South 457 526 38,100 -78 Level FlightAware ADS-B
Wed 12:02:54 AM 33.9010 -77.6520 198° South 456 525 38,000 -67 Descending FlightAware ADS-B
Wed 12:03:46 AM 33.7450 -77.7150 199° South 459 528 38,000  Level FlightAware ADS-B
Wed 12:04:20 AM 33.6620 -77.7480 198° South 460 529 38,000  Level FlightAware ADS-B
Wed 12:05:03 AM 33.5910 -77.7760 198° South 460 529 38,000  Level FlightAware ADS-B
Wed 12:05:39 AM 33.5290 -77.8000 198° South 460 529 38,000  Level FlightAware ADS-B
Wed 12:06:39 AM 33.4260 -77.8400 198° South 460 529 38,000  Level FlightAware ADS-B
Wed 12:07:15 AM 33.3640 -77.8640 198° South 460 529 38,000  Level FlightAware ADS-B
Wed 12:08:45 AM 33.1280 -77.9600 199° South 461 531 38,000  Level FlightAware ADS-B
Wed 12:09:43 AM 33.0160 -78.0040 198° South 461 531 38,000  Level FlightAware ADS-B
Wed 12:10:19 AM 32.9540 -78.0280 198° South 461 531 38,000  Level FlightAware ADS-B
Wed 12:11:00 AM 32.8520 -78.0690 199° South 465 535 38,000  Level FlightAware ADS-B
Wed 12:11:45 AM 32.7600 -78.1040 198° South 466 536 38,000  Level FlightAware ADS-B
Wed 12:12:25 AM 32.6770 -78.1370 199° South 467 537 38,000  Level FlightAware ADS-B
Wed 12:13:10 AM 32.5860 -78.1720 198° South 467 537 38,000  Level FlightAware ADS-B
Wed 12:14:00 AM 32.4920 -78.2090 198° South 467 537 38,000  Level FlightAware ADS-B
Wed 12:14:40 AM 32.4080 -78.2420 198° South 468 539 38,000 75 Level FlightAware ADS-B
Wed 12:15:20 AM 32.3180 -78.2760 198° South 466 536 38,100  Climbing FlightAware ADS-B
Wed 12:16:15 AM 32.2120 -78.3170 198° South 464 534 38,000 -65 Descending FlightAware ADS-B
Wed 12:16:52 AM 32.1480 -78.3420 198° South 464 534 38,000  Level FlightAware ADS-B
Wed 12:17:29 AM 32.0840 -78.3670 198° South 464 534 38,000  Level FlightAware ADS-B
Wed 12:18:22 AM 31.9570 -78.4160 198° South 460 529 38,000  Level FlightAware ADS-B
Wed 12:19:03 AM 31.8770 -78.4460 198° South 458 527 38,000  Level FlightAware ADS-B
Wed 12:19:40 AM 31.8140 -78.4710 199° South 458 527 38,000  Level FlightAware ADS-B
Wed 12:20:22 AM 31.7420 -78.4980 198° South 458 527 38,000  Level FlightAware ADS-B
Wed 12:20:58 AM 31.6800 -78.5220 198° South 458 527 38,000  Level FlightAware ADS-B
Wed 12:21:46 AM 31.5980 -78.5530 198° South 458 527 38,000  Level FlightAware ADS-B
Wed 12:22:35 AM 31.5140 -78.5850 198° South 458 527 38,000  Level FlightAware ADS-B
Wed 12:23:11 AM 31.4520 -78.6080 198° South 458 527 38,000  Level FlightAware ADS-B
Wed 12:23:59 AM 31.3700 -78.6400 198° South 458 527 38,000  Level FlightAware ADS-B
Wed 12:24:35 AM 31.3090 -78.6630 198° South 458 527 38,000  Level FlightAware ADS-B
Wed 12:25:23 AM 31.2260 -78.6940 198° South 458 527 38,000  Level FlightAware ADS-B
Wed 12:25:59 AM 31.1650 -78.7180 199° South 458 527 38,000  Level FlightAware ADS-B
Wed 12:26:47 AM 31.0820 -78.7490 198° South 458 527 38,000  Level FlightAware ADS-B
Wed 12:27:23 AM 31.0210 -78.7720 198° South 458 527 38,000  Level FlightAware ADS-B
Wed 12:27:59 AM 30.9590 -78.7960 198° South 458 527 38,000  Level FlightAware ADS-B
Wed 12:29:21 AM 30.6489 -78.9086 198° South 458 527 38,000 -40 Level Jacksonville Center
Wed 12:30:30 AM 30.5233 -78.9597 199° South 415 478 37,900 -47 Descending Miami Center
Wed 12:31:30 AM 30.3978 -79.0006 196° South 430 495 37,900  Level Miami Center
Wed 12:32:30 AM 30.2847 -79.0319 193° South 441 507 37,900 50 Level Miami Center
Wed 12:33:30 AM 30.1569 -79.0653 193° South 446 513 38,000 50 Climbing Miami Center
Wed 12:34:30 AM 30.0336 -79.0961 192° South 451 519 38,000  Level Miami Center
Wed 12:35:32 AM 29.9183 -79.1275 193° South 444 511 38,000  Level Miami Center
Wed 12:36:31 AM 29.7969 -79.1583 192° South 444 511 38,000  Level Miami Center
Wed 12:37:32 AM 29.6775 -79.1964 195° South 444 511 38,000  Level Miami Center
Wed 12:38:32 AM 29.5558 -79.2319 194° South 451 519 38,000  Level Miami Center
Wed 12:39:31 AM 29.4406 -79.2722 197° South 451 519 38,000  Level Miami Center
Wed 12:40:30 AM 29.3189 -79.3053 193° South 451 519 38,000  Level Miami Center
Wed 12:41:31 AM 29.1953 -79.3406 194° South 451 519 38,000  Level Miami Center
Wed 12:42:32 AM 29.0778 -79.3806 197° South 451 519 38,000  Level Miami Center
Wed 12:43:30 AM 28.9539 -79.4206 196° South 456 525 38,000  Level Miami Center
Wed 12:49:29 AM 28.2330 -79.7100 196° South 448 516 38,000  Level FlightAware ADS-B
Wed 12:50:39 AM 28.1220 -79.7770 208° Southwest 449 517 38,000  Level FlightAware ADS-B
Wed 12:51:21 AM 28.0310 -79.8380 211° Southwest 448 516 38,000  Level FlightAware ADS-B
Wed 12:51:58 AM 27.9650 -79.8770 208° Southwest 449 517 38,000 -506 Level FlightAware ADS-B
Wed 12:52:44 AM 27.8770 -79.9180 202° Southwest 448 516 37,300 -690 Descending FlightAware ADS-B
Wed 12:53:51 AM 27.7560 -79.9650 199° South 458 527 36,700 -350 Descending FlightAware ADS-B
Wed 12:54:27 AM 27.6950 -79.9890 199° South 458 527 36,700  Level FlightAware ADS-B
Wed 12:55:40 AM 27.5710 -80.0370 199° South 458 527 36,700 -4,556 Level FlightAware ADS-B
Wed 12:56:24 AM 27.4220 -80.0180 174° South 26,600 -8,292 Descending FlightAware ADS-B
Wed 12:57:09 AM 27.3200 -79.9980 170° South 439 505 24,400 -2,714 Descending FlightAware ADS-B
Wed 12:57:48 AM 27.2400 -79.9820 170° South 433 498 22,800 -2,538 Descending FlightAware ADS-B
Wed 12:58:27 AM 27.1660 -79.9680 170° South 423 487 21,100 -2,602 Descending FlightAware ADS-B
Wed 12:59:11 AM 27.0800 -79.9510 170° South 412 474 19,200 -2,494 Descending FlightAware ADS-B
Wed 12:59:44 AM 27.0190 -79.9390 170° South 403 464 17,900 -2,416 Descending FlightAware ADS-B
Wed 01:00:28 AM 26.9390 -79.9240 171° South 389 448 16,100 -2,188 Descending FlightAware ADS-B
Wed 01:01:09 AM 26.8680 -79.9100 170° South 375 432 14,800 -1,976 Descending FlightAware ADS-B
Wed 01:01:53 AM 26.7940 -79.8950 170° South 361 415 13,300 -2,047 Descending FlightAware ADS-B
Wed 01:02:34 AM 26.7270 -79.8820 170° South 350 403 11,900 -1,950 Descending FlightAware ADS-B
Wed 01:03:13 AM 26.6660 -79.8710 171° South 338 389 10,700 -1,301 Descending FlightAware ADS-B
Wed 01:03:57 AM 26.6000 -79.8580 170° South 308 354 10,100 -794 Descending FlightAware ADS-B
Wed 01:04:21 AM 26.5670 -79.8520 171° South 295 339 9,800 -1,000 Descending FlightAware ADS-B
Wed 01:04:45 AM 26.5350 -79.8450 169° South 297 342 9,300 -1,269 Descending FlightAware ADS-B
Wed 01:05:13 AM 26.4970 -79.8380 171° South 294 338 8,700 -1,300 Descending FlightAware ADS-B
Wed 01:05:45 AM 26.4570 -79.8490 194° South 283 326 8,000 -1,143 Descending FlightAware ADS-B
Wed 01:05:55 AM 26.4450 -79.8540 200° South 280 322 7,900 -167 Descending FlightAware ADS-B
Wed 01:06:21 AM 26.4150 -79.8690 204° Southwest 263 303 7,900 -480 Level FlightAware ADS-B
Wed 01:06:45 AM 26.3890 -79.8810 202° Southwest 262 302 7,500 -1,385 Descending FlightAware ADS-B
Wed 01:07:13 AM 26.3560 -79.8960 202° Southwest 266 306 6,700 -1,467 Descending FlightAware ADS-B
Wed 01:07:30 AM 26.3360 -79.9060 204° Southwest 264 304 6,400 -1,333 Descending FlightAware ADS-B
Wed 01:07:58 AM 26.3050 -79.9210 203° Southwest 262 302 5,700 -1,472 Descending FlightAware ADS-B
Wed 01:08:23 AM 26.2770 -79.9340 203° Southwest 261 300 5,100 -1,368 Descending FlightAware ADS-B
Wed 01:08:55 AM 26.2420 -79.9500 202° Southwest 258 297 4,400 -1,424 Descending FlightAware ADS-B
Wed 01:09:22 AM 26.2110 -79.9640 202° Southwest 258 297 3,700 -1,500 Descending FlightAware ADS-B
Wed 01:09:51 AM 26.1800 -79.9790 203° Southwest 255 293 3,000 -1,358 Descending FlightAware ADS-B
Wed 01:10:15 AM 26.1540 -79.9910 203° Southwest 250 288 2,500 -900 Descending FlightAware ADS-B
Wed 01:10:31 AM 26.1380 -79.9990 204° Southwest 242 278 2,400 -545 Descending FlightAware ADS-B
Wed 01:10:59 AM 26.1090 -80.0120 202° Southwest 223 257 2,100 -577 Descending FlightAware ADS-B
Wed 01:11:23 AM 26.0870 -80.0230 204° Southwest 209 241 1,900 -500 Descending FlightAware ADS-B
Wed 01:11:35 AM 26.0780 -80.0300 215° Southwest 198 228 1,800 -720 Descending FlightAware ADS-B
Wed 01:11:48 AM 26.0750 -80.0400 252° West 189 217 1,600 -878 Descending FlightAware ADS-B
Wed 01:12:16 AM 26.0760 -80.0660 272° West 147 169 1,200 -808 Descending FlightAware ADS-B
Wed 01:12:40 AM 26.0770 -80.0820 274° West 124 143 900 -600 Descending FlightAware ADS-B
Wed 01:12:56 AM 26.0770 -80.0920 270° West 122 140 800 -571 Descending FlightAware ADS-B
Wed 01:13:22 AM 26.0770 -80.1090 270° West 121 139 500 -638 Descending FlightAware ADS-B
Wed 01:13:43 AM 26.0770 -80.1210 270° West 120 138 300 -295 Descending FlightAware ADS-B
Wed 01:14:23 AM 26.0770 -80.1440 270° West 123 142 200 -150 Descending FlightAware ADS-B
Wed 01:15:21 AM 26.0760 -80.1550 264° West 8 9 -207 Descending FlightAware ADS-B
Wed 01:16:53 AM 26.0750 -80.1510 106° East 9 10  Level FlightAware ADS-B
Wed 01:21:00 AM 26.0667 -80.1500 103° East  Level FlightAware Approximate
Wed 01:22:00 AM 26.0726 -80.1527 103° East  Level Estimated

Login

Don't have an account? Register now (free) for customized features, flight alerts, and more!